Time;durP1;ratioP1;P1;durP2;ratioP2;P2;SDS_P1;SDS_P2;PMS_P1;PMS_P2;Temp;Humidity;BMP_temperature;BMP_pressure;BME280_temperature;BME280_humidity;BME280_pressure;Samples;Min_cycle;Max_cycle;Signal;HPM_P1;HPM_P2
2023/08/12 00:00:12;;;;;;;31.42;30.13;;;21.80;99.90;;;;;;5070549;28;20760;-65
2023/08/12 00:02:39;;;;;;;20.67;19.95;;;21.80;99.90;;;;;;5070777;28;20310;-64
2023/08/12 00:05:06;;;;;;;24.27;23.38;;;21.80;99.90;;;;;;5070979;28;20211;-63
2023/08/12 00:07:34;;;;;;;40.88;39.17;;;21.70;99.90;;;;;;5070784;28;20219;-65
2023/08/12 00:10:03;;;;;;;26.23;25.25;;;21.70;99.90;;;;;;5070312;28;20466;-64
2023/08/12 00:12:30;;;;;;;28.25;27.23;;;21.70;99.90;;;;;;5070865;28;20310;-65
2023/08/12 00:14:56;;;;;;;20.48;19.77;;;21.70;99.90;;;;;;5071006;28;20298;-63
2023/08/12 00:17:25;;;;;;;23.50;22.63;;;21.70;99.90;;;;;;5071174;28;20743;-64
2023/08/12 00:19:51;;;;;;;26.75;25.75;;;21.60;99.90;;;;;;5070765;28;20471;-66
2023/08/12 00:22:18;;;;;;;22.80;22.00;;;21.60;99.90;;;;;;5071239;28;20234;-64
2023/08/12 00:24:45;;;;;;;24.70;23.80;;;21.60;99.90;;;;;;5070245;28;20209;-65
2023/08/12 00:27:12;;;;;;;22.27;21.50;;;21.60;99.90;;;;;;5071485;28;20211;-64
2023/08/12 00:29:39;;;;;;;35.80;34.28;;;21.60;99.90;;;;;;5069479;28;20549;-64
2023/08/12 00:32:06;;;;;;;27.55;26.55;;;21.60;99.90;;;;;;5071298;28;20203;-64
2023/08/12 00:34:34;;;;;;;21.08;20.38;;;21.60;99.90;;;;;;5071365;28;20207;-64
2023/08/12 00:37:01;;;;;;;20.95;20.25;;;21.60;99.90;;;;;;5075770;28;20214;-65
2023/08/12 00:39:27;;;;;;;22.85;22.05;;;21.60;99.90;;;;;;5070121;28;20650;-65
2023/08/12 00:41:54;;;;;;;22.52;21.73;;;21.60;99.90;;;;;;5070886;28;20214;-65
2023/08/12 00:44:21;;;;;;;23.52;22.73;;;21.70;99.90;;;;;;5069718;28;20319;-64
2023/08/12 00:46:49;;;;;;;23.42;22.63;;;21.70;99.90;;;;;;5070546;28;20230;-65
2023/08/12 00:49:17;;;;;;;27.13;26.13;;;21.80;99.90;;;;;;5072625;28;20218;-65
2023/08/12 00:51:46;;;;;;;25.42;24.48;;;21.80;99.90;;;;;;5077950;28;20298;-65
2023/08/12 00:54:15;;;;;;;22.85;22.05;;;21.80;99.90;;;;;;5075598;28;20225;-64
2023/08/12 00:56:43;;;;;;;21.90;21.15;;;21.70;99.90;;;;;;5080246;28;20200;-64
2023/08/12 00:59:10;;;;;;;23.88;23.08;;;21.70;99.90;;;;;;5078383;28;20761;-64
2023/08/12 01:01:40;;;;;;;23.85;23.02;;;21.70;99.90;;;;;;5071335;28;20673;-65
2023/08/12 01:04:07;;;;;;;23.02;22.23;;;21.70;99.90;;;;;;5066014;28;20593;-64
2023/08/12 01:06:34;;;;;;;22.43;21.63;;;21.70;99.90;;;;;;5066368;28;20217;-66
2023/08/12 01:09:05;;;;;;;23.00;22.20;;;21.80;99.90;;;;;;5062282;28;20219;-63
2023/08/12 01:11:40;;;;;;;23.60;22.80;;;21.80;99.90;;;;;;5069139;28;20257;-64
2023/08/12 01:14:13;;;;;;;23.55;22.75;;;21.80;99.90;;;;;;5069188;28;20222;-65
2023/08/12 01:16:45;;;;;;;24.60;23.70;;;21.80;99.90;;;;;;5069173;28;20204;-64
2023/08/12 01:19:30;;;;;;;22.42;21.63;;;21.70;99.90;;;;;;5066399;28;20622;-64
2023/08/12 01:22:00;;;;;;;23.48;22.67;;;21.80;99.90;;;;;;5067004;28;20586;-65
2023/08/12 01:24:28;;;;;;;21.63;20.88;;;21.70;99.90;;;;;;5069280;28;20750;-65
2023/08/12 01:26:55;;;;;;;23.98;23.08;;;21.70;99.90;;;;;;5066848;28;20201;-65
2023/08/12 01:29:22;;;;;;;23.40;22.60;;;21.70;99.90;;;;;;5068326;28;20310;-65
2023/08/12 01:31:55;;;;;;;22.08;21.27;;;21.70;99.90;;;;;;5068898;28;20286;-65
2023/08/12 01:34:40;;;;;;;23.02;22.23;;;21.70;99.90;;;;;;5068128;28;20219;-65
2023/08/12 01:37:12;;;;;;;24.08;23.27;;;21.80;99.90;;;;;;5069139;28;20203;-63
2023/08/12 01:39:43;;;;;;;22.33;21.52;;;21.80;99.90;;;;;;5064842;28;20195;-65
2023/08/12 01:42:10;;;;;;;24.13;23.33;;;21.90;99.90;;;;;;5066549;28;20616;-65
2023/08/12 01:44:37;;;;;;;24.50;23.60;;;21.90;99.90;;;;;;5069226;28;20200;-64
2023/08/12 01:47:04;;;;;;;25.55;24.65;;;22.00;99.90;;;;;;5069164;28;20306;-65
2023/08/12 01:49:30;;;;;;;24.75;23.90;;;22.00;99.90;;;;;;5068138;28;20219;-63
2023/08/12 01:51:57;;;;;;;24.45;23.65;;;22.10;99.90;;;;;;5069198;28;20314;-65
2023/08/12 01:54:24;;;;;;;25.40;24.50;;;22.10;99.90;;;;;;5069207;28;20203;-66
2023/08/12 01:56:52;;;;;;;23.38;22.58;;;22.10;99.90;;;;;;5068906;28;20205;-64
2023/08/12 01:59:19;;;;;;;24.48;23.58;;;22.10;99.90;;;;;;5067800;28;20291;-64
2023/08/12 02:01:46;;;;;;;22.90;22.10;;;22.00;99.90;;;;;;5066248;28;20645;-65
2023/08/12 02:04:13;;;;;;;23.65;22.77;;;22.10;99.90;;;;;;5068415;28;20234;-66
2023/08/12 02:06:39;;;;;;;22.20;21.40;;;22.10;99.90;;;;;;5069345;28;20218;-65
2023/08/12 02:09:06;;;;;;;24.15;23.35;;;22.10;99.90;;;;;;5066892;28;20223;-65
2023/08/12 02:11:33;;;;;;;24.05;23.17;;;22.10;99.90;;;;;;5070151;28;20235;-65
2023/08/12 02:14:01;;;;;;;22.95;22.15;;;22.10;99.90;;;;;;5070403;28;20233;-65
2023/08/12 02:16:28;;;;;;;22.88;22.08;;;22.10;99.90;;;;;;5071192;28;20567;-65
2023/08/12 02:18:55;;;;;;;23.25;22.45;;;22.10;99.90;;;;;;5070842;28;20207;-66
2023/08/12 02:21:21;;;;;;;21.13;20.40;;;22.00;99.90;;;;;;5069449;28;20207;-64
2023/08/12 02:23:48;;;;;;;21.40;20.67;;;21.90;99.90;;;;;;5069556;28;20746;-64
2023/08/12 02:26:15;;;;;;;21.75;21.05;;;21.80;99.90;;;;;;5069764;28;20240;-63
2023/08/12 02:28:42;;;;;;;24.08;23.27;;;21.70;99.90;;;;;;5069744;28;20223;-63
2023/08/12 02:31:10;;;;;;;22.92;22.13;;;21.70;99.90;;;;;;5068655;28;20299;-63
2023/08/12 02:33:37;;;;;;;19.90;19.20;;;21.60;99.90;;;;;;5074981;28;20223;-62
2023/08/12 02:36:04;;;;;;;20.52;19.83;;;21.60;99.90;;;;;;5076108;28;20211;-62
2023/08/12 02:38:31;;;;;;;19.73;19.02;;;21.50;99.90;;;;;;5075234;28;20207;-62
2023/08/12 02:40:58;;;;;;;20.50;19.80;;;21.40;99.90;;;;;;5071996;28;20209;-62
2023/08/12 02:43:24;;;;;;;21.90;21.15;;;21.40;99.90;;;;;;5071020;28;20739;-64
2023/08/12 02:45:51;;;;;;;21.73;20.92;;;21.40;99.90;;;;;;5071367;28;20345;-65
2023/08/12 02:48:20;;;;;;;21.90;21.10;;;21.40;99.90;;;;;;5072167;28;20673;-61
2023/08/12 02:50:46;;;;;;;19.58;18.88;;;21.40;99.90;;;;;;5070719;28;20209;-64
2023/08/12 02:53:13;;;;;;;23.38;22.58;;;21.40;99.90;;;;;;5069063;28;20550;-63
2023/08/12 02:55:40;;;;;;;21.92;21.15;;;21.40;99.90;;;;;;5068595;28;20215;-64
2023/08/12 02:58:07;;;;;;;22.88;22.05;;;21.30;99.90;;;;;;5068480;28;20550;-64
2023/08/12 03:00:33;;;;;;;22.45;21.65;;;21.40;99.90;;;;;;5067810;28;20226;-64
2023/08/12 03:03:00;;;;;;;20.50;19.73;;;21.30;99.90;;;;;;5068977;28;20341;-64
2023/08/12 03:05:28;;;;;;;22.40;21.60;;;21.20;99.90;;;;;;5068196;28;20294;-65
2023/08/12 03:07:55;;;;;;;19.80;19.10;;;21.20;99.90;;;;;;5068083;28;20231;-64
2023/08/12 03:10:22;;;;;;;20.20;19.50;;;21.20;99.90;;;;;;5068114;28;20204;-64
2023/08/12 03:12:49;;;;;;;17.55;16.95;;;21.20;99.90;;;;;;5068430;28;20274;-63
2023/08/12 03:15:16;;;;;;;20.50;19.80;;;21.10;99.90;;;;;;5069626;28;20207;-62
2023/08/12 03:17:42;;;;;;;20.45;19.75;;;21.10;99.90;;;;;;5072035;28;20203;-62
2023/08/12 03:20:10;;;;;;;19.27;18.58;;;21.10;99.90;;;;;;5071222;28;20199;-63
2023/08/12 03:22:39;;;;;;;19.77;19.08;;;21.10;99.90;;;;;;5073513;28;20270;-64
2023/08/12 03:25:07;;;;;;;21.25;20.55;;;20.90;99.90;;;;;;5074360;28;20534;-63
2023/08/12 03:27:34;;;;;;;21.42;20.73;;;20.90;99.90;;;;;;5073842;28;20218;-64
2023/08/12 03:30:00;;;;;;;21.58;20.83;;;20.90;99.90;;;;;;5073326;28;20238;-63
2023/08/12 03:32:27;;;;;;;24.23;23.38;;;20.90;99.90;;;;;;5073490;28;20234;-63
2023/08/12 03:34:54;;;;;;;21.17;20.48;;;21.00;99.90;;;;;;5074176;28;20207;-63
2023/08/12 03:37:21;;;;;;;20.10;19.40;;;21.00;99.90;;;;;;5072964;28;20203;-62
2023/08/12 03:39:49;;;;;;;20.20;19.50;;;21.00;99.90;;;;;;5072574;28;20203;-63
2023/08/12 03:42:16;;;;;;;20.70;20.00;;;20.90;99.90;;;;;;5073451;28;20205;-62
2023/08/12 03:44:43;;;;;;;20.88;20.13;;;20.90;99.90;;;;;;5073524;28;20298;-62
2023/08/12 03:47:10;;;;;;;20.88;20.17;;;20.90;99.90;;;;;;5073333;28;20204;-63
2023/08/12 03:49:37;;;;;;;21.52;20.80;;;20.90;99.90;;;;;;5073287;28;20255;-63
2023/08/12 03:52:06;;;;;;;21.27;20.55;;;21.00;99.90;;;;;;5073848;28;20217;-63
2023/08/12 03:54:33;;;;;;;20.90;20.17;;;21.10;99.90;;;;;;5073023;28;20229;-63
2023/08/12 03:57:02;;;;;;;21.38;20.67;;;21.00;99.90;;;;;;5073785;28;20479;-65
2023/08/12 03:59:28;;;;;;;19.90;19.20;;;21.00;99.90;;;;;;5072832;28;20567;-63
2023/08/12 04:01:55;;;;;;;19.33;18.63;;;21.10;99.90;;;;;;5073462;28;20213;-64
2023/08/12 04:04:22;;;;;;;35.83;34.17;;;21.10;99.90;;;;;;5071161;28;20572;-64
2023/08/12 04:06:51;;;;;;;15.88;15.38;;;21.00;99.90;;;;;;5073593;28;20290;-65
2023/08/12 04:09:18;;;;;;;15.50;15.00;;;21.00;99.90;;;;;;5078710;28;20303;-65
2023/08/12 04:11:45;;;;;;;15.77;15.23;;;20.90;99.90;;;;;;5081956;28;20294;-63
2023/08/12 04:14:13;;;;;;;16.77;16.17;;;20.90;99.90;;;;;;5085969;28;20253;-64
2023/08/12 04:16:40;;;;;;;16.37;15.77;;;20.80;99.90;;;;;;5078171;28;20286;-64
2023/08/12 04:19:07;;;;;;;18.13;17.42;;;20.80;99.90;;;;;;5072219;28;20203;-63
2023/08/12 04:21:33;;;;;;;19.88;19.17;;;20.80;99.90;;;;;;5072989;28;20233;-64
2023/08/12 04:24:00;;;;;;;18.10;17.50;;;20.80;99.90;;;;;;5072130;28;20998;-63
2023/08/12 04:26:27;;;;;;;16.65;16.05;;;20.80;99.90;;;;;;5070009;28;20214;-64
2023/08/12 04:28:54;;;;;;;18.00;17.40;;;20.80;99.90;;;;;;5071151;28;20223;-63
2023/08/12 04:31:22;;;;;;;18.35;17.75;;;20.80;99.90;;;;;;5070970;28;20510;-62
2023/08/12 04:33:52;;;;;;;20.50;19.80;;;20.90;99.90;;;;;;5071581;28;20223;-64
2023/08/12 04:36:19;;;;;;;18.88;18.27;;;20.90;99.90;;;;;;5071463;28;20230;-62
2023/08/12 04:38:46;;;;;;;17.88;17.27;;;21.00;99.90;;;;;;5070835;28;20199;-63
2023/08/12 04:41:13;;;;;;;17.55;16.95;;;20.90;99.90;;;;;;5070547;28;20286;-62
2023/08/12 04:43:39;;;;;;;17.75;17.15;;;20.90;99.90;;;;;;5071300;28;20227;-64
2023/08/12 04:46:06;;;;;;;18.33;17.65;;;21.00;99.90;;;;;;5071091;28;20298;-65
2023/08/12 04:48:34;;;;;;;18.67;18.08;;;21.00;99.90;;;;;;5071197;28;20203;-64
2023/08/12 04:51:02;;;;;;;20.02;19.33;;;21.10;99.90;;;;;;5070545;28;20211;-64
2023/08/12 04:53:29;;;;;;;19.58;18.88;;;21.10;99.90;;;;;;5069732;28;20231;-64
2023/08/12 04:55:56;;;;;;;18.33;17.73;;;21.10;99.90;;;;;;5072109;28;20203;-65
2023/08/12 04:58:23;;;;;;;18.60;17.90;;;21.10;99.90;;;;;;5072160;28;20209;-64
2023/08/12 05:00:51;;;;;;;20.17;19.47;;;21.10;99.90;;;;;;5071390;28;20233;-64
2023/08/12 05:03:18;;;;;;;19.75;19.05;;;21.10;99.90;;;;;;5071586;28;20245;-64
2023/08/12 05:05:50;;;;;;;17.85;17.25;;;21.20;99.90;;;;;;5070603;28;20207;-65
2023/08/12 05:08:17;;;;;;;19.92;19.23;;;21.20;99.90;;;;;;5070261;28;20261;-63
2023/08/12 05:10:44;;;;;;;19.27;18.58;;;21.10;99.90;;;;;;5070102;28;20304;-65
2023/08/12 05:13:11;;;;;;;18.90;18.20;;;21.10;99.90;;;;;;5071112;28;20326;-65
2023/08/12 05:15:38;;;;;;;19.60;18.90;;;21.20;99.90;;;;;;5070423;28;20203;-65
2023/08/12 05:18:06;;;;;;;19.17;18.47;;;21.20;99.90;;;;;;5070458;28;20214;-65
2023/08/12 05:20:32;;;;;;;19.83;19.13;;;21.30;99.90;;;;;;5069962;28;20239;-63
2023/08/12 05:23:00;;;;;;;17.83;17.23;;;21.30;99.90;;;;;;5070447;28;20257;-64
2023/08/12 05:25:27;;;;;;;18.67;17.98;;;21.30;99.90;;;;;;5070279;28;20289;-62
2023/08/12 05:27:54;;;;;;;20.00;19.30;;;21.30;99.90;;;;;;5070077;28;20695;-62
2023/08/12 05:30:21;;;;;;;20.90;20.20;;;21.40;99.90;;;;;;5069639;28;20227;-67
2023/08/12 05:32:48;;;;;;;19.08;18.27;;;21.40;99.90;;;;;;5070186;28;20219;-64
2023/08/12 05:35:15;;;;;;;20.05;19.35;;;21.30;99.90;;;;;;5069453;28;20264;-63
2023/08/12 05:37:41;;;;;;;20.30;19.60;;;21.30;99.90;;;;;;5070579;28;20211;-64
2023/08/12 05:40:11;;;;;;;18.75;18.10;;;21.40;99.90;;;;;;5069951;28;20669;-63
2023/08/12 05:42:38;;;;;;;22.45;21.65;;;21.40;99.90;;;;;;5070982;28;20681;-64
2023/08/12 05:45:06;;;;;;;20.02;19.33;;;21.40;99.90;;;;;;5070837;28;20241;-63
2023/08/12 05:47:33;;;;;;;19.50;18.80;;;21.40;99.90;;;;;;5070867;28;20268;-64
2023/08/12 05:50:00;;;;;;;21.80;21.00;;;21.40;99.90;;;;;;5070440;28;20260;-62
2023/08/12 05:52:27;;;;;;;25.48;24.58;;;21.60;99.90;;;;;;5070527;28;20231;-63
2023/08/12 05:54:53;;;;;;;21.58;20.77;;;21.90;99.90;;;;;;5070417;28;20625;-64
2023/08/12 05:57:21;;;;;;;22.80;22.00;;;22.00;99.90;;;;;;5070748;28;20205;-63
2023/08/12 05:59:48;;;;;;;22.70;21.90;;;22.10;99.90;;;;;;5069531;28;20203;-64
2023/08/12 06:02:16;;;;;;;21.05;20.35;;;22.20;99.90;;;;;;5070330;28;20751;-64
2023/08/12 06:04:42;;;;;;;19.23;18.52;;;22.20;99.90;;;;;;5068286;28;20211;-63
2023/08/12 06:07:09;;;;;;;21.30;20.58;;;22.30;99.90;;;;;;5071354;28;20333;-63
2023/08/12 06:09:36;;;;;;;21.02;20.33;;;22.50;99.90;;;;;;5070473;28;20588;-65
2023/08/12 06:12:03;;;;;;;21.10;20.30;;;22.50;99.90;;;;;;5070947;28;20657;-65
2023/08/12 06:14:31;;;;;;;20.33;19.60;;;22.50;99.90;;;;;;5070917;28;20233;-63
2023/08/12 06:16:58;;;;;;;21.48;20.63;;;22.60;99.90;;;;;;5071121;28;20289;-63
2023/08/12 06:19:25;;;;;;;21.02;20.30;;;22.60;99.90;;;;;;5070201;28;20199;-62
2023/08/12 06:21:51;;;;;;;22.73;21.92;;;22.80;99.90;;;;;;5071070;28;20211;-63
2023/08/12 06:24:18;;;;;;;20.38;19.67;;;23.00;99.90;;;;;;5071168;28;20713;-65
2023/08/12 06:26:45;;;;;;;19.63;18.92;;;23.10;99.90;;;;;;5071155;28;20203;-65
2023/08/12 06:29:12;;;;;;;21.00;20.30;;;23.20;99.90;;;;;;5070329;28;20226;-64
2023/08/12 06:31:40;;;;;;;20.52;19.83;;;23.30;99.90;;;;;;5071497;28;20213;-64
2023/08/12 06:34:07;;;;;;;19.17;18.48;;;23.40;99.90;;;;;;5071276;28;20223;-64
2023/08/12 06:36:34;;;;;;;19.17;18.48;;;23.50;99.90;;;;;;5071511;28;20297;-64
2023/08/12 06:39:01;;;;;;;19.75;19.05;;;23.60;99.90;;;;;;5070261;28;20209;-64
2023/08/12 06:41:27;;;;;;;17.40;16.80;;;23.70;99.90;;;;;;5070282;28;20203;-65
2023/08/12 06:43:54;;;;;;;17.10;16.50;;;23.90;99.90;;;;;;5070823;28;20323;-65
2023/08/12 06:46:21;;;;;;;17.27;16.67;;;24.00;99.90;;;;;;5070658;28;20615;-64
2023/08/12 06:48:49;;;;;;;18.33;17.73;;;24.10;99.90;;;;;;5070712;28;20557;-63
2023/08/12 06:51:16;;;;;;;17.57;16.97;;;24.20;99.90;;;;;;5071686;28;20219;-64
2023/08/12 06:53:43;;;;;;;18.50;17.88;;;24.30;99.90;;;;;;5073697;28;20259;-65
2023/08/12 06:56:10;;;;;;;18.02;17.33;;;24.40;99.90;;;;;;5074067;28;20306;-65
2023/08/12 06:58:37;;;;;;;17.38;16.77;;;24.50;99.90;;;;;;5074277;28;20203;-64
2023/08/12 07:01:03;;;;;;;18.00;17.30;;;24.50;99.90;;;;;;5073212;28;20700;-63
2023/08/12 07:03:30;;;;;;;18.98;18.38;;;24.60;99.90;;;;;;5073715;28;20314;-63
2023/08/12 07:05:58;;;;;;;17.70;17.10;;;24.70;99.90;;;;;;5075319;28;20696;-64
2023/08/12 07:08:26;;;;;;;17.58;16.98;;;24.80;99.90;;;;;;5074378;28;20385;-63
2023/08/12 07:10:54;;;;;;;19.30;18.60;;;24.90;99.90;;;;;;5073523;28;20784;-63
2023/08/12 07:13:20;;;;;;;17.88;17.27;;;25.10;99.90;;;;;;5075922;28;20562;-64
2023/08/12 07:15:47;;;;;;;19.13;18.42;;;25.20;99.90;;;;;;5073790;28;20203;-63
2023/08/12 07:18:14;;;;;;;18.95;18.25;;;25.40;99.90;;;;;;5071957;28;20239;-63
2023/08/12 07:20:41;;;;;;;18.90;18.23;;;25.40;99.90;;;;;;5073254;28;20669;-65
2023/08/12 07:23:09;;;;;;;18.67;18.08;;;25.50;99.90;;;;;;5075121;28;20241;-63
2023/08/12 07:25:36;;;;;;;21.70;20.92;;;25.70;99.90;;;;;;5077139;28;20211;-63
2023/08/12 07:28:03;;;;;;;21.15;20.45;;;25.90;99.90;;;;;;5073805;28;20293;-62
2023/08/12 07:30:30;;;;;;;22.17;21.38;;;26.10;99.90;;;;;;5073251;28;20241;-63
2023/08/12 07:32:56;;;;;;;22.17;21.38;;;26.20;99.90;;;;;;5074320;28;20327;-64
2023/08/12 07:35:23;;;;;;;24.38;23.55;;;26.40;99.90;;;;;;5073429;28;20207;-62
2023/08/12 07:37:50;;;;;;;18.40;17.80;;;26.50;99.90;;;;;;5073657;28;20238;-66
2023/08/12 07:40:18;;;;;;;18.58;17.98;;;26.50;99.90;;;;;;5074041;28;20215;-63
2023/08/12 07:42:45;;;;;;;19.60;18.90;;;26.40;99.90;;;;;;5075739;28;20350;-62
2023/08/12 07:45:12;;;;;;;19.48;18.77;;;26.40;99.90;;;;;;5075439;28;20294;-62
2023/08/12 07:47:39;;;;;;;18.70;18.10;;;26.40;99.90;;;;;;5072755;28;20207;-64
2023/08/12 07:50:06;;;;;;;19.52;18.83;;;26.60;99.90;;;;;;5072114;28;20241;-62
2023/08/12 07:52:33;;;;;;;18.55;17.90;;;26.90;99.90;;;;;;5072782;28;20319;-63
2023/08/12 07:55:00;;;;;;;18.27;17.67;;;27.10;99.90;;;;;;5079444;28;20207;-64
2023/08/12 07:57:28;;;;;;;18.58;17.90;;;27.20;99.90;;;;;;5082900;28;20211;-63
2023/08/12 07:59:55;;;;;;;19.25;18.55;;;27.20;99.90;;;;;;5080694;28;20553;-65
2023/08/12 08:02:22;;;;;;;19.40;18.70;;;27.00;99.90;;;;;;5084854;28;20318;-64
2023/08/12 08:04:49;;;;;;;19.05;18.35;;;26.80;99.90;;;;;;5084298;28;20207;-65
2023/08/12 08:07:17;;;;;;;18.90;18.20;;;27.00;99.90;;;;;;5074444;28;20234;-64
2023/08/12 08:09:44;;;;;;;18.08;17.42;;;27.10;99.90;;;;;;5071883;28;20207;-63
2023/08/12 08:12:11;;;;;;;18.17;17.58;;;27.30;99.90;;;;;;5072124;28;20213;-64
2023/08/12 08:14:40;;;;;;;17.85;17.25;;;27.20;99.90;;;;;;5072211;28;20280;-65
2023/08/12 08:17:07;;;;;;;17.27;16.67;;;27.40;99.90;;;;;;5074654;28;20669;-62
2023/08/12 08:19:34;;;;;;;16.92;16.33;;;27.40;99.90;;;;;;5072567;28;20264;-62
2023/08/12 08:22:01;;;;;;;18.33;17.70;;;27.40;99.90;;;;;;5071985;28;20211;-63
2023/08/12 08:24:31;;;;;;;17.27;16.67;;;27.60;99.90;;;;;;5108408;22;20234;-64
2023/08/12 08:26:57;;;;;;;15.90;15.35;;;27.70;99.90;;;;;;5093371;28;20209;-66
2023/08/12 08:29:25;;;;;;;16.65;16.05;;;27.60;99.90;;;;;;5091841;28;20690;-67
2023/08/12 08:31:53;;;;;;;17.42;16.83;;;27.60;99.90;;;;;;5092691;28;20606;-65
2023/08/12 08:34:20;;;;;;;17.05;16.45;;;27.60;99.90;;;;;;5109603;28;20226;-64
2023/08/12 08:36:47;;;;;;;17.63;16.98;;;27.60;99.90;;;;;;5113460;28;20212;-65
2023/08/12 08:39:14;;;;;;;18.08;17.48;;;27.50;99.90;;;;;;5112139;28;20292;-65
2023/08/12 08:41:41;;;;;;;15.52;15.02;;;27.40;99.90;;;;;;5112913;28;20629;-65
2023/08/12 08:44:09;;;;;;;15.90;15.30;;;27.30;99.90;;;;;;5113265;28;20249;-68
2023/08/12 08:46:36;;;;;;;13.55;13.05;;;27.20;99.90;;;;;;5113554;28;20206;-66
2023/08/12 08:49:06;;;;;;;14.52;14.02;;;27.20;99.90;;;;;;5112278;28;20616;-66
2023/08/12 08:51:33;;;;;;;14.23;13.73;;;27.00;99.90;;;;;;5111608;28;20229;-66
2023/08/12 08:54:00;;;;;;;14.50;14.00;;;26.90;99.90;;;;;;5111153;28;20229;-68
2023/08/12 08:56:27;;;;;;;14.80;14.27;;;26.80;99.90;;;;;;5111643;28;20202;-64
2023/08/12 08:58:54;;;;;;;17.00;16.40;;;26.90;99.90;;;;;;5112331;28;20308;-66
2023/08/12 09:01:22;;;;;;;18.60;18.00;;;26.90;99.90;;;;;;5110799;28;20208;-66
2023/08/12 09:03:52;;;;;;;16.55;15.95;;;27.30;99.90;;;;;;5110618;28;20221;-67
2023/08/12 09:06:22;;;;;;;15.73;15.20;;;27.80;99.90;;;;;;5111051;28;20213;-67
2023/08/12 09:08:51;;;;;;;15.15;14.65;;;28.10;99.90;;;;;;5111687;28;20226;-65
2023/08/12 09:11:19;;;;;;;15.23;14.73;;;28.30;99.90;;;;;;5111719;28;20226;-64
2023/08/12 09:13:46;;;;;;;15.25;14.75;;;28.30;99.90;;;;;;5120306;28;20316;-65
2023/08/12 09:16:13;;;;;;;15.25;14.75;;;28.40;99.90;;;;;;5111306;28;20297;-66
2023/08/12 09:18:40;;;;;;;16.10;15.57;;;28.40;99.90;;;;;;5110861;28;20197;-67
2023/08/12 09:21:07;;;;;;;14.32;13.82;;;28.70;99.90;;;;;;5109697;28;20212;-66
2023/08/12 09:23:38;;;;;;;14.10;13.60;;;28.70;99.90;;;;;;5111520;28;20324;-66
2023/08/12 09:26:13;;;;;;;14.75;14.25;;;28.50;99.90;;;;;;5112097;28;20225;-68
2023/08/12 09:28:40;;;;;;;14.13;13.63;;;28.60;99.90;;;;;;5112402;28;20223;-65
2023/08/12 09:31:08;;;;;;;16.45;15.85;;;28.70;99.90;;;;;;5111199;28;20230;-67
2023/08/12 09:33:39;;;;;;;15.02;14.52;;;28.80;99.90;;;;;;5111799;28;20225;-66
2023/08/12 09:36:06;;;;;;;17.20;16.60;;;29.10;99.90;;;;;;5111904;28;20209;-66
2023/08/12 09:38:33;;;;;;;13.82;13.32;;;29.40;99.90;;;;;;5115943;28;20215;-68
2023/08/12 09:41:01;;;;;;;15.70;15.20;;;29.50;99.90;;;;;;5111106;28;20197;-67
2023/08/12 09:43:29;;;;;;;15.85;15.35;;;29.40;99.90;;;;;;5105293;28;20284;-66
2023/08/12 09:45:58;;;;;;;16.73;16.13;;;29.30;99.90;;;;;;5102863;28;20199;-65
2023/08/12 09:48:27;;;;;;;13.93;13.43;;;29.30;99.90;;;;;;5098382;28;20359;-63
2023/08/12 09:50:54;;;;;;;17.92;17.23;;;29.20;99.90;;;;;;5098748;28;20592;-66
2023/08/12 09:53:23;;;;;;;16.27;15.75;;;29.20;99.90;;;;;;5101433;28;20290;-64
2023/08/12 09:55:53;;;;;;;17.15;16.55;;;29.00;99.90;;;;;;5098716;28;20211;-67
2023/08/12 09:58:24;;;;;;;17.02;16.42;;;28.80;99.90;;;;;;5101617;28;20585;-68
2023/08/12 10:00:53;;;;;;;15.85;15.35;;;28.80;99.90;;;;;;5098892;28;20210;-66
2023/08/12 10:03:21;;;;;;;15.40;14.90;;;28.80;99.90;;;;;;5099496;28;20231;-65
2023/08/12 10:05:48;;;;;;;16.58;15.98;;;29.10;99.90;;;;;;5100296;28;20289;-66
2023/08/12 10:08:16;;;;;;;15.95;15.35;;;29.40;99.90;;;;;;5103856;28;20195;-66
2023/08/12 10:10:43;;;;;;;15.98;15.38;;;29.50;99.90;;;;;;5099163;28;20241;-67
2023/08/12 10:13:11;;;;;;;13.18;12.68;;;29.70;99.90;;;;;;5101524;28;20214;-67
2023/08/12 10:15:39;;;;;;;12.43;12.02;;;29.60;99.90;;;;;;5102566;28;20194;-67
2023/08/12 10:18:07;;;;;;;12.45;12.05;;;29.40;99.90;;;;;;5100302;28;20217;-67
2023/08/12 10:20:36;;;;;;;11.77;11.38;;;29.40;99.90;;;;;;5099891;28;20194;-66
2023/08/12 10:23:04;;;;;;;12.43;12.02;;;29.30;99.90;;;;;;5101257;28;20224;-67
2023/08/12 10:25:34;;;;;;;12.40;12.00;;;29.40;99.90;;;;;;5103251;28;20198;-67
2023/08/12 10:28:01;;;;;;;12.60;12.20;;;29.40;99.90;;;;;;5106335;28;20190;-67
2023/08/12 10:30:31;;;;;;;12.80;12.30;;;29.40;99.90;;;;;;5103185;28;20277;-68
2023/08/12 10:33:00;;;;;;;12.32;11.93;;;29.30;99.90;;;;;;5103056;28;20221;-69
2023/08/12 10:35:42;;;;;;;12.55;12.15;;;29.10;99.90;;;;;;5089003;28;20194;-68
2023/08/12 10:38:09;;;;;;;13.20;12.75;;;29.00;99.90;;;;;;5097445;28;20201;-66
2023/08/12 10:40:36;;;;;;;12.20;11.80;;;29.20;99.90;;;;;;5100839;28;20214;-66
2023/08/12 10:43:03;;;;;;;12.70;12.30;;;29.20;99.90;;;;;;5101294;28;20218;-69
2023/08/12 10:45:43;;;;;;;12.35;11.95;;;29.10;99.90;;;;;;5101757;28;20198;-67
2023/08/12 10:48:18;;;;;;;14.00;13.43;;;28.80;99.90;;;;;;5094824;28;20721;-64
2023/08/12 10:50:46;;;;;;;12.98;12.57;;;28.70;99.90;;;;;;5089712;28;20222;-67
2023/08/12 10:53:24;;;;;;;13.48;12.98;;;28.60;99.90;;;;;;5089796;28;20739;-65
2023/08/12 10:55:52;;;;;;;13.10;12.70;;;28.60;99.90;;;;;;5090365;28;20206;-69
2023/08/12 10:58:27;;;;;;;13.27;12.75;;;28.30;99.90;;;;;;5089901;28;20410;-65
2023/08/12 11:00:55;;;;;;;13.80;13.30;;;28.40;99.90;;;;;;5099957;28;20290;-65
2023/08/12 11:03:24;;;;;;;14.05;13.55;;;28.60;99.90;;;;;;5093596;28;20543;-66
2023/08/12 11:05:55;;;;;;;14.13;13.63;;;28.60;99.90;;;;;;5104944;28;20198;-65
2023/08/12 11:08:26;;;;;;;13.40;12.90;;;28.60;99.90;;;;;;5100029;28;20198;-66
2023/08/12 11:10:56;;;;;;;13.38;12.88;;;28.50;99.90;;;;;;5092799;28;20225;-66
2023/08/12 11:13:23;;;;;;;13.07;12.57;;;28.40;99.90;;;;;;5098296;28;20222;-64
2023/08/12 11:15:50;;;;;;;13.48;12.98;;;28.20;99.90;;;;;;5103126;28;20210;-67
2023/08/12 11:18:19;;;;;;;14.05;13.55;;;28.20;99.90;;;;;;5097990;28;20660;-64
2023/08/12 11:20:51;;;;;;;14.50;14.00;;;28.00;99.90;;;;;;5101486;28;21208;-69
2023/08/12 11:23:20;;;;;;;13.68;13.18;;;27.90;99.90;;;;;;5102311;28;20234;-67
2023/08/12 11:25:49;;;;;;;16.20;15.63;;;27.80;99.90;;;;;;5093742;28;20202;-66
2023/08/12 11:28:18;;;;;;;15.98;15.38;;;27.60;99.90;;;;;;5109199;28;20198;-65
2023/08/12 11:30:46;;;;;;;34.67;33.47;;;27.40;99.90;;;;;;5102033;28;20300;-65
2023/08/12 11:33:13;;;;;;;27.67;26.65;;;27.00;99.90;;;;;;5095441;28;20282;-68
2023/08/12 11:35:40;;;;;;;38.55;37.17;;;26.80;99.90;;;;;;5103080;28;20201;-66
2023/08/12 11:38:09;;;;;;;43.80;42.28;;;26.80;99.90;;;;;;5105234;28;20208;-67
2023/08/12 11:40:36;;;;;;;70.22;67.75;;;26.80;99.90;;;;;;5104946;28;20198;-66
2023/08/12 11:43:04;;;;;;;61.20;59.05;;;27.00;99.90;;;;;;5093669;28;20228;-68
2023/08/12 11:45:31;;;;;;;67.43;65.00;;;27.30;99.90;;;;;;5102588;28;20198;-66
2023/08/12 11:47:58;;;;;;;31.13;30.02;;;27.60;99.90;;;;;;5101175;28;20203;-66
2023/08/12 11:50:27;;;;;;;37.25;35.92;;;27.60;99.90;;;;;;5100522;28;20578;-66
2023/08/12 11:52:56;;;;;;;28.63;27.58;;;27.50;99.90;;;;;;5102934;28;20236;-65
2023/08/12 11:55:25;;;;;;;37.45;36.15;;;27.50;99.90;;;;;;5101057;28;20198;-66
2023/08/12 11:57:52;;;;;;;76.72;74.03;;;27.40;99.90;;;;;;5098641;28;20202;-65
2023/08/12 12:00:19;;;;;;;62.45;60.22;;;27.30;99.90;;;;;;5101915;28;20242;-66
2023/08/12 12:02:52;;;;;;;56.95;54.92;;;27.10;99.90;;;;;;5099333;28;20214;-64
2023/08/12 12:05:20;;;;;;;81.45;78.60;;;27.00;99.90;;;;;;5104650;28;20199;-67
2023/08/12 12:07:49;;;;;;;58.78;56.72;;;27.00;99.90;;;;;;5103118;28;20576;-66
2023/08/12 12:10:19;;;;;;;59.92;57.72;;;27.10;99.90;;;;;;5103464;28;20202;-65
2023/08/12 12:12:47;;;;;;;28.02;27.02;;;27.20;99.90;;;;;;5101283;28;20226;-65
2023/08/12 12:15:15;;;;;;;49.42;47.65;;;27.40;99.90;;;;;;5100795;28;20194;-66
2023/08/12 12:17:42;;;;;;;29.38;28.33;;;27.50;99.90;;;;;;5100600;28;20626;-64
2023/08/12 12:20:11;;;;;;;20.98;20.23;;;27.50;99.90;;;;;;5103311;28;20199;-68
2023/08/12 12:22:39;;;;;;;28.30;27.30;;;27.70;99.90;;;;;;5113658;28;20194;-67
2023/08/12 12:25:11;;;;;;;55.05;53.13;;;27.90;99.90;;;;;;5115501;28;20197;-67
2023/08/12 12:27:39;;;;;;;37.92;36.58;;;28.10;99.90;;;;;;5103001;28;20201;-66
2023/08/12 12:30:09;;;;;;;24.15;23.27;;;28.30;99.90;;;;;;5103135;28;20194;-69